Daio — JG5587 — position and weather

sailwx.info

Track history (hours):
 
Tides and Currents Weather Stations Pressure Air Temp Water Temp Dewpoint Dewpoint Depression Visibility Wind Speed Wind Dir Waves Ship Positions

Daio

Last reported at 2015-Jul-28 17:33 UTC. Time now 2015-Jul-28 17:44 UTC.
Position N 35°36' E 140°07'.

Length 36 m; draft 3.4 m.

Type: Tug. MMSI: 431003092.

Date/timePositionNaut miles runAvg speedWind from/ knotsBaromVisibWave heightAir tempDewpointWater temp
2015-Jul-28 17:33N 35°36' E 140°07'0 0.0
2015-Jul-28 16:33N 35°36' E 140°07'0 0.0
2015-Jul-28 15:33N 35°36' E 140°07'0 0.0
2015-Jul-28 14:34N 35°36' E 140°07'0 0.0
2015-Jul-28 13:34N 35°36' E 140°07'0 0.0
2015-Jul-28 12:33N 35°36' E 140°07'0 0.0
2015-Jul-28 11:34N 35°36' E 140°07'0 0.0
2015-Jul-28 10:33N 35°36' E 140°07'0 0.0
2015-Jul-28 09:33N 35°36' E 140°07'0 0.0
2015-Jul-28 08:33N 35°36' E 140°07'0 0.0
2015-Jul-28 07:33N 35°36' E 140°07'0 0.0
2015-Jul-28 06:33N 35°36' E 140°07'1 1.1
2015-Jul-28 05:33N 35°35' E 140°06'3 2.6
2015-Jul-28 04:33N 35°32' E 140°05'2 2.3
2015-Jul-28 03:33N 35°34' E 140°03'0 0.3
2015-Jul-28 02:33N 35°34' E 140°03'0 0.0
2015-Jul-28 01:33N 35°34' E 140°03'0 0.0
2015-Jul-28 00:33N 35°34' E 140°03'4 3.7
2015-Jul-27 23:33N 35°36' E 140°07'1 0.0
2015-Jul-27 07:27N 35°35' E 140°06'0 0.2
2015-Jul-27 06:33N 35°35' E 140°06'2 2.3
2015-Jul-27 05:33N 35°36' E 140°04'0 0.0
2015-Jul-27 04:33N 35°36' E 140°04'0 0.0
2015-Jul-27 03:33N 35°35' E 140°04'0 0.0
2015-Jul-27 02:33N 35°35' E 140°04'5 4.7
2015-Jul-27 01:33N 35°33' E 139°59'3 3.1
2015-Jul-27 00:33N 35°31' E 139°56'6 6.0
2015-Jul-26 23:33N 35°34' E 140°02'3 3.1
2015-Jul-26 22:33N 35°36' E 140°05'2 1.6
2015-Jul-26 21:33N 35°35' E 140°03'0 0.0
2015-Jul-26 20:33N 35°35' E 140°03'3 2.8
2015-Jul-26 19:33N 35°36' E 140°07'0 0.0
2015-Jul-26 18:33N 35°36' E 140°07'0 0.0
2015-Jul-26 17:33N 35°36' E 140°07'0 0.0
2015-Jul-26 16:33N 35°36' E 140°07'0 0.0
2015-Jul-26 15:33N 35°36' E 140°07'0 0.0
2015-Jul-26 14:33N 35°36' E 140°07'0 0.0
2015-Jul-26 13:33N 35°36' E 140°07'0 0.0
2015-Jul-26 12:34N 35°36' E 140°07'0 0.0
2015-Jul-26 11:33N 35°36' E 140°07'0 0.0
2015-Jul-26 10:33N 35°36' E 140°07'0 0.0
2015-Jul-26 09:33N 35°36' E 140°07'0 0.0
2015-Jul-26 08:33N 35°36' E 140°07'0 0.0
2015-Jul-26 07:33N 35°36' E 140°07'0 0.0
2015-Jul-26 06:34N 35°36' E 140°07'0 0.0
2015-Jul-26 05:34N 35°36' E 140°07'0 0.0
2015-Jul-26 04:34N 35°36' E 140°07'0 0.0
2015-Jul-26 03:33N 35°36' E 140°07'2 2.3
2015-Jul-26 02:33N 35°35' E 140°04'8 8.4
2015-Jul-26 01:34N 35°28' E 139°58'4 3.8
2015-Jul-26 00:33N 35°31' E 140°01'7 6.5
2015-Jul-25 23:33N 35°36' E 140°07'0 0.0
2015-Jul-25 22:33N 35°36' E 140°07'0 0.0
2015-Jul-25 21:33N 35°36' E 140°07'0 0.0
2015-Jul-25 20:33N 35°36' E 140°07'0 0.0
2015-Jul-25 19:33N 35°36' E 140°07'0 0.0
2015-Jul-25 18:33N 35°36' E 140°07'0 0.0
2015-Jul-25 17:33N 35°36' E 140°07'0 0.0
2015-Jul-25 16:33N 35°36' E 140°07'0 0.0
2015-Jul-25 15:33N 35°36' E 140°07'0 0.0
2015-Jul-25 14:33N 35°36' E 140°07'0 0.0
2015-Jul-25 13:33N 35°36' E 140°07'0 0.0
2015-Jul-25 12:33N 35°36' E 140°07'0 0.0
2015-Jul-25 11:33N 35°36' E 140°07'0 0.0
2015-Jul-25 10:33N 35°36' E 140°07'0 0.0
2015-Jul-25 09:33N 35°36' E 140°07'0 0.0
2015-Jul-25 08:33N 35°36' E 140°07'0 0.0
2015-Jul-25 07:33N 35°36' E 140°07'0 0.0
2015-Jul-25 06:33N 35°36' E 140°07'0 0.0
2015-Jul-25 05:33N 35°36' E 140°07'2 2.0
2015-Jul-25 04:33N 35°35' E 140°05'9 8.5
2015-Jul-25 03:32N 35°28' E 139°58'0 0.0
2015-Jul-25 02:33N 35°28' E 139°58'3 2.6
2015-Jul-25 01:33N 35°30' E 139°55'1 0.7
2015-Jul-25 00:33N 35°29' E 139°55'5 5.2
2015-Jul-24 23:33N 35°32' E 139°60'6 5.9
2015-Jul-24 22:33N 35°36' E 140°05'5 4.7
2015-Jul-24 21:33N 35°34' E 140°00'6 5.7
2015-Jul-24 20:33N 35°36' E 140°07'0 0.0
2015-Jul-24 19:33N 35°36' E 140°07'0 0.0
2015-Jul-24 18:33N 35°36' E 140°07'0 0.0
2015-Jul-24 17:33N 35°36' E 140°07'0 0.0
2015-Jul-24 16:33N 35°36' E 140°07'0 0.0
2015-Jul-24 15:33N 35°36' E 140°07'0 0.0
2015-Jul-24 14:33N 35°36' E 140°07'0 0.0
2015-Jul-24 13:33N 35°36' E 140°07'0 0.0
2015-Jul-24 12:33N 35°36' E 140°07'1 1.1
2015-Jul-24 11:33N 35°35' E 140°06'9 9.4
2015-Jul-24 10:34N 35°29' E 139°57'1 1.1
2015-Jul-24 09:33N 35°29' E 139°59'9 9.4
2015-Jul-24 08:33N 35°36' E 140°07'0 0.0
2015-Jul-24 07:33N 35°36' E 140°07'0 0.0
2015-Jul-24 06:33N 35°36' E 140°07'6 5.7
2015-Jul-24 05:33N 35°33' E 140°01'4 4.4
2015-Jul-24 04:33N 35°31' E 139°56'0 0.3
2015-Jul-24 03:33N 35°30' E 139°56'1 0.8
2015-Jul-24 02:34N 35°31' E 139°55'1 0.8
2015-Jul-24 01:33N 35°31' E 139°56'1010.2
2015-Jul-24 00:34N 35°36' E 140°07'0 0.1
2015-Jul-23 23:34N 35°36' E 140°07'0 0.0
2015-Jul-23 22:33N 35°36' E 140°07'0 0.0
2015-Jul-23 21:33N 35°36' E 140°07'0 0.0
2015-Jul-23 20:33N 35°36' E 140°07'0 0.0
2015-Jul-23 19:33N 35°36' E 140°07'0 0.0
2015-Jul-23 18:32N 35°36' E 140°07'0 0.0
2015-Jul-23 17:33N 35°36' E 140°07'0 0.0
2015-Jul-23 16:33N 35°36' E 140°07'0 0.0
2015-Jul-23 15:33N 35°36' E 140°07'0 0.0
2015-Jul-23 14:33N 35°36' E 140°07'0 0.0
2015-Jul-23 13:33N 35°36' E 140°07'0 0.0
2015-Jul-23 12:33N 35°36' E 140°07'0 0.0
2015-Jul-23 11:33N 35°36' E 140°07'1 1.0
2015-Jul-23 10:33N 35°36' E 140°06'1 1.0
2015-Jul-23 09:33N 35°36' E 140°07'0 0.0
2015-Jul-23 08:34N 35°36' E 140°07'0 0.0
2015-Jul-23 07:33N 35°36' E 140°07'0 0.0
2015-Jul-23 06:33N 35°36' E 140°07'9 9.1
2015-Jul-23 05:32N 35°29' E 139°59'1 1.2
2015-Jul-23 04:34N 35°28' E 139°58'1 0.9
2015-Jul-23 03:33N 35°29' E 139°57'2 2.3
2015-Jul-23 02:33N 35°29' E 139°55'0 0.1
2015-Jul-23 01:33N 35°29' E 139°55'5 5.1
2015-Jul-23 00:34N 35°33' E 139°58'5 4.7
2015-Jul-22 23:33N 35°29' E 140°00'9 8.7
2015-Jul-22 22:33N 35°36' E 140°07'0 0.0
2015-Jul-22 21:33N 35°36' E 140°07'0 0.0
2015-Jul-22 20:33N 35°36' E 140°07'0 0.0
2015-Jul-22 19:33N 35°36' E 140°07'0 0.0
2015-Jul-22 18:33N 35°36' E 140°07'0 0.0
2015-Jul-22 17:33N 35°36' E 140°07'0 0.0
2015-Jul-22 16:33N 35°36' E 140°07'0 0.0
2015-Jul-22 15:33N 35°36' E 140°07'0 0.0
2015-Jul-22 14:33N 35°36' E 140°07'0 0.0
2015-Jul-22 13:33N 35°36' E 140°07'0 0.0
2015-Jul-22 12:33N 35°36' E 140°07'0 0.0
2015-Jul-22 11:33N 35°36' E 140°07'7 6.6
2015-Jul-22 10:33N 35°34' E 139°59'6 5.6
2015-Jul-22 09:33N 35°36' E 140°05'1 1.3
2015-Jul-22 08:33N 35°36' E 140°07'0 0.2
2015-Jul-22 07:33N 35°36' E 140°07'0 0.0
2015-Jul-22 06:33N 35°36' E 140°07'0 0.0
2015-Jul-22 05:33N 35°36' E 140°07'0 0.0
2015-Jul-22 04:33N 35°36' E 140°07'0 0.0
2015-Jul-22 03:33N 35°36' E 140°07'0 0.0
2015-Jul-22 02:33N 35°36' E 140°07'0 0.0
2015-Jul-22 01:33N 35°36' E 140°07'0 0.0
2015-Jul-22 00:33N 35°36' E 140°07'1 0.8
2015-Jul-21 23:33N 35°36' E 140°06'0 0.3
2015-Jul-21 22:33N 35°36' E 140°06'5 5.2
2015-Jul-21 21:33N 35°34' E 139°59'3 2.9
2015-Jul-21 20:33N 35°35' E 140°03'3 3.5
2015-Jul-21 19:33N 35°36' E 140°07'0 0.0
2015-Jul-21 18:33N 35°36' E 140°07'0 0.0
2015-Jul-21 17:33N 35°36' E 140°07'0 0.0
2015-Jul-21 16:33N 35°36' E 140°07'0 0.0
2015-Jul-21 15:33N 35°36' E 140°07'0 0.0
2015-Jul-21 14:33N 35°36' E 140°07'0 0.0
2015-Jul-21 13:33N 35°36' E 140°07'0 0.0
2015-Jul-21 12:33N 35°36' E 140°07'0 0.0
2015-Jul-21 11:33N 35°36' E 140°07'0 0.0
2015-Jul-21 10:33N 35°36' E 140°07'0 0.0
2015-Jul-21 09:33N 35°36' E 140°07'6 5.8
2015-Jul-21 08:33N 35°32' E 140°01'5 4.6
2015-Jul-21 07:33N 35°28' E 139°58'0 0.1
2015-Jul-21 06:33N 35°28' E 139°58'2 2.2
2015-Jul-21 05:33N 35°30' E 139°56'2 2.1
2015-Jul-21 04:34N 35°29' E 139°58'2 1.6
2015-Jul-21 03:33N 35°30' E 139°59'9 8.6
2015-Jul-21 02:33N 35°36' E 140°07'0 0.0
2015-Jul-21 01:33N 35°36' E 140°07'0 0.0
2015-Jul-21 00:33N 35°36' E 140°07'2 1.6
2015-Jul-20 23:33N 35°36' E 140°05'3 3.0
2015-Jul-20 22:33N 35°35' E 140°02'5 4.6
2015-Jul-20 21:33N 35°32' E 139°58'4 3.8
2015-Jul-20 20:33N 35°34' E 140°02'5 4.8
2015-Jul-20 19:33N 35°36' E 140°07'0 0.0
2015-Jul-20 18:33N 35°36' E 140°07'0 0.0
2015-Jul-20 17:33N 35°36' E 140°07'0 0.0
2015-Jul-20 16:33N 35°36' E 140°07'0 0.0
2015-Jul-20 15:33N 35°36' E 140°07'0 0.0
2015-Jul-20 14:33N 35°36' E 140°07'0 0.0
2015-Jul-20 13:33N 35°36' E 140°07'0 0.0
2015-Jul-20 12:33N 35°36' E 140°07'0 0.0
2015-Jul-20 11:33N 35°36' E 140°07'0 0.0
2015-Jul-20 10:33N 35°36' E 140°07'0 0.0
2015-Jul-20 09:33N 35°36' E 140°07'0 0.0
2015-Jul-20 08:33N 35°36' E 140°07'0 0.1
2015-Jul-20 07:34N 35°36' E 140°07'1010.3
2015-Jul-20 06:33N 35°28' E 139°58'0 0.0
2015-Jul-20 05:33N 35°28' E 139°58'2 1.9
2015-Jul-20 04:34N 35°30' E 139°56'2 2.1
2015-Jul-20 03:33N 35°31' E 139°58'9 8.7
2015-Jul-20 02:33N 35°36' E 140°07'0 0.0
2015-Jul-20 01:33N 35°36' E 140°07'0 0.0
2015-Jul-20 00:33N 35°36' E 140°07'0 0.0
2015-Jul-19 23:33N 35°36' E 140°07'0 0.0
2015-Jul-19 22:33N 35°36' E 140°07'0 0.0
2015-Jul-19 21:33N 35°36' E 140°07'0 0.0
2015-Jul-19 20:33N 35°36' E 140°07'0 0.0
2015-Jul-19 19:33N 35°36' E 140°07'0 0.0
2015-Jul-19 18:33N 35°36' E 140°07'0 0.0
2015-Jul-19 17:33N 35°36' E 140°07'0 0.0
2015-Jul-19 16:33N 35°36' E 140°07'0 0.0
2015-Jul-19 15:33N 35°36' E 140°07'0 0.0
2015-Jul-19 14:33N 35°36' E 140°07'0 0.0
2015-Jul-19 13:33N 35°36' E 140°07'0 0.0
2015-Jul-19 12:33N 35°36' E 140°07'0 0.0
2015-Jul-19 11:33N 35°36' E 140°07'0 0.0
2015-Jul-19 10:33N 35°36' E 140°07'0 0.0
2015-Jul-19 09:33N 35°36' E 140°07'7 6.5
2015-Jul-19 08:33N 35°33' E 139°60'4 3.6
2015-Jul-19 07:33N 35°31' E 139°56'0 0.1
2015-Jul-19 06:33N 35°31' E 139°56'1 1.5
2015-Jul-19 05:33N 35°30' E 139°54'1211.7
2015-Jul-19 04:33N 35°36' E 140°07'5 1.3
2015-Jul-19 00:33N 35°34' E 140°01'2 2.2
2015-Jul-18 23:33N 35°33' E 139°58'7 6.9
2015-Jul-18 22:33N 35°35' E 140°06'1 0.6
2015-Jul-18 21:32N 35°36' E 140°07'0 0.0
2015-Jul-18 20:33N 35°36' E 140°07'0 0.0
2015-Jul-18 19:33N 35°36' E 140°07'0 0.0
2015-Jul-18 18:33N 35°36' E 140°07'0 0.0
2015-Jul-18 17:33N 35°36' E 140°07'  
Track history (hours):
 
Tides and Currents Weather Stations Pressure Air Temp Water Temp Dewpoint Dewpoint Depression Visibility Wind Speed Wind Dir Waves Ship Positions

Daio

Last reported at 2015-Jul-28 17:33 UTC. Time now 2015-Jul-28 17:44 UTC.
Position N 35°36' E 140°07'.

Length 36 m; draft 3.4 m.

Type: Tug. MMSI: 431003092.

Date/timePositionNaut miles runAvg speedWind from/ knotsBaromVisibWave heightAir tempDewpointWater temp
2015-Jul-28 17:33N 35°36' E 140°07'0 0.0
2015-Jul-28 16:33N 35°36' E 140°07'0 0.0
2015-Jul-28 15:33N 35°36' E 140°07'0 0.0
2015-Jul-28 14:34N 35°36' E 140°07'0 0.0
2015-Jul-28 13:34N 35°36' E 140°07'0 0.0
2015-Jul-28 12:33N 35°36' E 140°07'0 0.0
2015-Jul-28 11:34N 35°36' E 140°07'0 0.0
2015-Jul-28 10:33N 35°36' E 140°07'0 0.0
2015-Jul-28 09:33N 35°36' E 140°07'0 0.0
2015-Jul-28 08:33N 35°36' E 140°07'0 0.0
2015-Jul-28 07:33N 35°36' E 140°07'0 0.0
2015-Jul-28 06:33N 35°36' E 140°07'1 1.1
2015-Jul-28 05:33N 35°35' E 140°06'3 2.6
2015-Jul-28 04:33N 35°32' E 140°05'2 2.3
2015-Jul-28 03:33N 35°34' E 140°03'0 0.3
2015-Jul-28 02:33N 35°34' E 140°03'0 0.0
2015-Jul-28 01:33N 35°34' E 140°03'0 0.0
2015-Jul-28 00:33N 35°34' E 140°03'4 3.7
2015-Jul-27 23:33N 35°36' E 140°07'1 0.0
2015-Jul-27 07:27N 35°35' E 140°06'0 0.2
2015-Jul-27 06:33N 35°35' E 140°06'2 2.3
2015-Jul-27 05:33N 35°36' E 140°04'0 0.0
2015-Jul-27 04:33N 35°36' E 140°04'0 0.0
2015-Jul-27 03:33N 35°35' E 140°04'0 0.0
2015-Jul-27 02:33N 35°35' E 140°04'5 4.7
2015-Jul-27 01:33N 35°33' E 139°59'3 3.1
2015-Jul-27 00:33N 35°31' E 139°56'6 6.0
2015-Jul-26 23:33N 35°34' E 140°02'3 3.1
2015-Jul-26 22:33N 35°36' E 140°05'2 1.6
2015-Jul-26 21:33N 35°35' E 140°03'0 0.0
2015-Jul-26 20:33N 35°35' E 140°03'3 2.8
2015-Jul-26 19:33N 35°36' E 140°07'0 0.0
2015-Jul-26 18:33N 35°36' E 140°07'0 0.0
2015-Jul-26 17:33N 35°36' E 140°07'0 0.0
2015-Jul-26 16:33N 35°36' E 140°07'0 0.0
2015-Jul-26 15:33N 35°36' E 140°07'0 0.0
2015-Jul-26 14:33N 35°36' E 140°07'0 0.0
2015-Jul-26 13:33N 35°36' E 140°07'0 0.0
2015-Jul-26 12:34N 35°36' E 140°07'0 0.0
2015-Jul-26 11:33N 35°36' E 140°07'0 0.0
2015-Jul-26 10:33N 35°36' E 140°07'0 0.0
2015-Jul-26 09:33N 35°36' E 140°07'0 0.0
2015-Jul-26 08:33N 35°36' E 140°07'0 0.0
2015-Jul-26 07:33N 35°36' E 140°07'0 0.0
2015-Jul-26 06:34N 35°36' E 140°07'0 0.0
2015-Jul-26 05:34N 35°36' E 140°07'0 0.0
2015-Jul-26 04:34N 35°36' E 140°07'0 0.0
2015-Jul-26 03:33N 35°36' E 140°07'2 2.3
2015-Jul-26 02:33N 35°35' E 140°04'8 8.4
2015-Jul-26 01:34N 35°28' E 139°58'4 3.8
2015-Jul-26 00:33N 35°31' E 140°01'7 6.5
2015-Jul-25 23:33N 35°36' E 140°07'0 0.0
2015-Jul-25 22:33N 35°36' E 140°07'0 0.0
2015-Jul-25 21:33N 35°36' E 140°07'0 0.0
2015-Jul-25 20:33N 35°36' E 140°07'0 0.0
2015-Jul-25 19:33N 35°36' E 140°07'0 0.0
2015-Jul-25 18:33N 35°36' E 140°07'0 0.0
2015-Jul-25 17:33N 35°36' E 140°07'0 0.0
2015-Jul-25 16:33N 35°36' E 140°07'0 0.0
2015-Jul-25 15:33N 35°36' E 140°07'0 0.0
2015-Jul-25 14:33N 35°36' E 140°07'0 0.0
2015-Jul-25 13:33N 35°36' E 140°07'0 0.0
2015-Jul-25 12:33N 35°36' E 140°07'0 0.0
2015-Jul-25 11:33N 35°36' E 140°07'0 0.0
2015-Jul-25 10:33N 35°36' E 140°07'0 0.0
2015-Jul-25 09:33N 35°36' E 140°07'0 0.0
2015-Jul-25 08:33N 35°36' E 140°07'0 0.0
2015-Jul-25 07:33N 35°36' E 140°07'0 0.0
2015-Jul-25 06:33N 35°36' E 140°07'0 0.0
2015-Jul-25 05:33N 35°36' E 140°07'2 2.0
2015-Jul-25 04:33N 35°35' E 140°05'9 8.5
2015-Jul-25 03:32N 35°28' E 139°58'0 0.0
2015-Jul-25 02:33N 35°28' E 139°58'3 2.6
2015-Jul-25 01:33N 35°30' E 139°55'1 0.7
2015-Jul-25 00:33N 35°29' E 139°55'5 5.2
2015-Jul-24 23:33N 35°32' E 139°60'6 5.9
2015-Jul-24 22:33N 35°36' E 140°05'5 4.7
2015-Jul-24 21:33N 35°34' E 140°00'6 5.7
2015-Jul-24 20:33N 35°36' E 140°07'0 0.0
2015-Jul-24 19:33N 35°36' E 140°07'0 0.0
2015-Jul-24 18:33N 35°36' E 140°07'0 0.0
2015-Jul-24 17:33N 35°36' E 140°07'0 0.0
2015-Jul-24 16:33N 35°36' E 140°07'0 0.0
2015-Jul-24 15:33N 35°36' E 140°07'0 0.0
2015-Jul-24 14:33N 35°36' E 140°07'0 0.0
2015-Jul-24 13:33N 35°36' E 140°07'0 0.0
2015-Jul-24 12:33N 35°36' E 140°07'1 1.1
2015-Jul-24 11:33N 35°35' E 140°06'9 9.4
2015-Jul-24 10:34N 35°29' E 139°57'1 1.1
2015-Jul-24 09:33N 35°29' E 139°59'9 9.4
2015-Jul-24 08:33N 35°36' E 140°07'0 0.0
2015-Jul-24 07:33N 35°36' E 140°07'0 0.0
2015-Jul-24 06:33N 35°36' E 140°07'6 5.7
2015-Jul-24 05:33N 35°33' E 140°01'4 4.4
2015-Jul-24 04:33N 35°31' E 139°56'0 0.3
2015-Jul-24 03:33N 35°30' E 139°56'1 0.8
2015-Jul-24 02:34N 35°31' E 139°55'1 0.8
2015-Jul-24 01:33N 35°31' E 139°56'1010.2
2015-Jul-24 00:34N 35°36' E 140°07'0 0.1
2015-Jul-23 23:34N 35°36' E 140°07'0 0.0
2015-Jul-23 22:33N 35°36' E 140°07'0 0.0
2015-Jul-23 21:33N 35°36' E 140°07'0 0.0
2015-Jul-23 20:33N 35°36' E 140°07'0 0.0
2015-Jul-23 19:33N 35°36' E 140°07'0 0.0
2015-Jul-23 18:32N 35°36' E 140°07'0 0.0
2015-Jul-23 17:33N 35°36' E 140°07'0 0.0
2015-Jul-23 16:33N 35°36' E 140°07'0 0.0
2015-Jul-23 15:33N 35°36' E 140°07'0 0.0
2015-Jul-23 14:33N 35°36' E 140°07'0 0.0
2015-Jul-23 13:33N 35°36' E 140°07'0 0.0
2015-Jul-23 12:33N 35°36' E 140°07'0 0.0
2015-Jul-23 11:33N 35°36' E 140°07'1 1.0
2015-Jul-23 10:33N 35°36' E 140°06'1 1.0
2015-Jul-23 09:33N 35°36' E 140°07'0 0.0
2015-Jul-23 08:34N 35°36' E 140°07'0 0.0
2015-Jul-23 07:33N 35°36' E 140°07'0 0.0
2015-Jul-23 06:33N 35°36' E 140°07'9 9.1
2015-Jul-23 05:32N 35°29' E 139°59'1 1.2
2015-Jul-23 04:34N 35°28' E 139°58'1 0.9
2015-Jul-23 03:33N 35°29' E 139°57'2 2.3
2015-Jul-23 02:33N 35°29' E 139°55'0 0.1
2015-Jul-23 01:33N 35°29' E 139°55'5 5.1
2015-Jul-23 00:34N 35°33' E 139°58'5 4.7
2015-Jul-22 23:33N 35°29' E 140°00'9 8.7
2015-Jul-22 22:33N 35°36' E 140°07'0 0.0
2015-Jul-22 21:33N 35°36' E 140°07'0 0.0
2015-Jul-22 20:33N 35°36' E 140°07'0 0.0
2015-Jul-22 19:33N 35°36' E 140°07'0 0.0
2015-Jul-22 18:33N 35°36' E 140°07'0 0.0
2015-Jul-22 17:33N 35°36' E 140°07'0 0.0
2015-Jul-22 16:33N 35°36' E 140°07'0 0.0
2015-Jul-22 15:33N 35°36' E 140°07'0 0.0
2015-Jul-22 14:33N 35°36' E 140°07'0 0.0
2015-Jul-22 13:33N 35°36' E 140°07'0 0.0
2015-Jul-22 12:33N 35°36' E 140°07'0 0.0
2015-Jul-22 11:33N 35°36' E 140°07'7 6.6
2015-Jul-22 10:33N 35°34' E 139°59'6 5.6
2015-Jul-22 09:33N 35°36' E 140°05'1 1.3
2015-Jul-22 08:33N 35°36' E 140°07'0 0.2
2015-Jul-22 07:33N 35°36' E 140°07'0 0.0
2015-Jul-22 06:33N 35°36' E 140°07'0 0.0
2015-Jul-22 05:33N 35°36' E 140°07'0 0.0
2015-Jul-22 04:33N 35°36' E 140°07'0 0.0
2015-Jul-22 03:33N 35°36' E 140°07'0 0.0
2015-Jul-22 02:33N 35°36' E 140°07'0 0.0
2015-Jul-22 01:33N 35°36' E 140°07'0 0.0
2015-Jul-22 00:33N 35°36' E 140°07'1 0.8
2015-Jul-21 23:33N 35°36' E 140°06'0 0.3
2015-Jul-21 22:33N 35°36' E 140°06'5 5.2
2015-Jul-21 21:33N 35°34' E 139°59'3 2.9
2015-Jul-21 20:33N 35°35' E 140°03'3 3.5
2015-Jul-21 19:33N 35°36' E 140°07'0 0.0
2015-Jul-21 18:33N 35°36' E 140°07'0 0.0
2015-Jul-21 17:33N 35°36' E 140°07'0 0.0
2015-Jul-21 16:33N 35°36' E 140°07'0 0.0
2015-Jul-21 15:33N 35°36' E 140°07'0 0.0
2015-Jul-21 14:33N 35°36' E 140°07'0 0.0
2015-Jul-21 13:33N 35°36' E 140°07'0 0.0
2015-Jul-21 12:33N 35°36' E 140°07'0 0.0
2015-Jul-21 11:33N 35°36' E 140°07'0 0.0
2015-Jul-21 10:33N 35°36' E 140°07'0 0.0
2015-Jul-21 09:33N 35°36' E 140°07'6 5.8
2015-Jul-21 08:33N 35°32' E 140°01'5 4.6
2015-Jul-21 07:33N 35°28' E 139°58'0 0.1
2015-Jul-21 06:33N 35°28' E 139°58'2 2.2
2015-Jul-21 05:33N 35°30' E 139°56'2 2.1
2015-Jul-21 04:34N 35°29' E 139°58'2 1.6
2015-Jul-21 03:33N 35°30' E 139°59'9 8.6
2015-Jul-21 02:33N 35°36' E 140°07'0 0.0
2015-Jul-21 01:33N 35°36' E 140°07'0 0.0
2015-Jul-21 00:33N 35°36' E 140°07'2 1.6
2015-Jul-20 23:33N 35°36' E 140°05'3 3.0
2015-Jul-20 22:33N 35°35' E 140°02'5 4.6
2015-Jul-20 21:33N 35°32' E 139°58'4 3.8
2015-Jul-20 20:33N 35°34' E 140°02'5 4.8
2015-Jul-20 19:33N 35°36' E 140°07'0 0.0
2015-Jul-20 18:33N 35°36' E 140°07'0 0.0
2015-Jul-20 17:33N 35°36' E 140°07'0 0.0
2015-Jul-20 16:33N 35°36' E 140°07'0 0.0
2015-Jul-20 15:33N 35°36' E 140°07'0 0.0
2015-Jul-20 14:33N 35°36' E 140°07'0 0.0
2015-Jul-20 13:33N 35°36' E 140°07'0 0.0
2015-Jul-20 12:33N 35°36' E 140°07'0 0.0
2015-Jul-20 11:33N 35°36' E 140°07'0 0.0
2015-Jul-20 10:33N 35°36' E 140°07'0 0.0
2015-Jul-20 09:33N 35°36' E 140°07'0 0.0
2015-Jul-20 08:33N 35°36' E 140°07'0 0.1
2015-Jul-20 07:34N 35°36' E 140°07'1010.3
2015-Jul-20 06:33N 35°28' E 139°58'0 0.0
2015-Jul-20 05:33N 35°28' E 139°58'2 1.9
2015-Jul-20 04:34N 35°30' E 139°56'2 2.1
2015-Jul-20 03:33N 35°31' E 139°58'9 8.7
2015-Jul-20 02:33N 35°36' E 140°07'0 0.0
2015-Jul-20 01:33N 35°36' E 140°07'0 0.0
2015-Jul-20 00:33N 35°36' E 140°07'0 0.0
2015-Jul-19 23:33N 35°36' E 140°07'0 0.0
2015-Jul-19 22:33N 35°36' E 140°07'0 0.0
2015-Jul-19 21:33N 35°36' E 140°07'0 0.0
2015-Jul-19 20:33N 35°36' E 140°07'0 0.0
2015-Jul-19 19:33N 35°36' E 140°07'0 0.0
2015-Jul-19 18:33N 35°36' E 140°07'0 0.0
2015-Jul-19 17:33N 35°36' E 140°07'0 0.0
2015-Jul-19 16:33N 35°36' E 140°07'0 0.0
2015-Jul-19 15:33N 35°36' E 140°07'0 0.0
2015-Jul-19 14:33N 35°36' E 140°07'0 0.0
2015-Jul-19 13:33N 35°36' E 140°07'0 0.0
2015-Jul-19 12:33N 35°36' E 140°07'0 0.0
2015-Jul-19 11:33N 35°36' E 140°07'0 0.0
2015-Jul-19 10:33N 35°36' E 140°07'0 0.0
2015-Jul-19 09:33N 35°36' E 140°07'7 6.5
2015-Jul-19 08:33N 35°33' E 139°60'4 3.6
2015-Jul-19 07:33N 35°31' E 139°56'0 0.1
2015-Jul-19 06:33N 35°31' E 139°56'1 1.5
2015-Jul-19 05:33N 35°30' E 139°54'1211.7
2015-Jul-19 04:33N 35°36' E 140°07'5 1.3
2015-Jul-19 00:33N 35°34' E 140°01'2 2.2
2015-Jul-18 23:33N 35°33' E 139°58'7 6.9
2015-Jul-18 22:33N 35°35' E 140°06'1 0.6
2015-Jul-18 21:32N 35°36' E 140°07'0 0.0
2015-Jul-18 20:33N 35°36' E 140°07'0 0.0
2015-Jul-18 19:33N 35°36' E 140°07'0 0.0
2015-Jul-18 18:33N 35°36' E 140°07'0 0.0
2015-Jul-18 17:33N 35°36' E 140°07'  

Dump ship's entire track history